createdAt,value
2023-01-29T00:01:23.209Z,8.00
2023-01-29T00:03:52.949Z,8.30
2023-01-29T00:06:19.674Z,8.20
2023-01-29T00:08:47.504Z,8.50
2023-01-29T00:11:14.239Z,7.90
2023-01-29T00:13:40.839Z,8.70
2023-01-29T00:16:07.499Z,8.20
2023-01-29T00:18:37.787Z,8.70
2023-01-29T00:21:04.530Z,8.90
2023-01-29T00:23:31.152Z,10.00
2023-01-29T00:25:59.761Z,9.20
2023-01-29T00:28:26.574Z,9.90
2023-01-29T00:30:53.212Z,9.00
2023-01-29T00:33:19.907Z,8.30
2023-01-29T00:35:46.545Z,9.50
2023-01-29T00:38:13.150Z,9.70
2023-01-29T00:40:59.110Z,9.70
2023-01-29T00:43:44.606Z,8.60
2023-01-29T00:46:11.365Z,7.70
2023-01-29T00:48:38.075Z,7.90
2023-01-29T00:51:04.875Z,7.90
2023-01-29T00:53:31.732Z,8.10
2023-01-29T00:55:58.376Z,6.90
2023-01-29T00:58:34.471Z,7.00
2023-01-29T01:01:02.354Z,8.20
2023-01-29T01:03:29.888Z,7.70
2023-01-29T01:06:03.279Z,6.90
2023-01-29T01:08:48.458Z,6.50
2023-01-29T01:11:15.122Z,7.10
2023-01-29T01:13:41.782Z,7.60
2023-01-29T01:16:16.128Z,7.50
2023-01-29T01:18:42.929Z,6.30
2023-01-29T01:21:09.579Z,6.30
2023-01-29T01:23:36.919Z,6.60
2023-01-29T01:26:08.313Z,7.30
2023-01-29T01:28:35.633Z,7.00
2023-01-29T01:31:08.358Z,7.20
2023-01-29T01:33:35.185Z,6.80
2023-01-29T01:36:02.448Z,6.90
2023-01-29T01:38:29.130Z,6.00
2023-01-29T01:40:55.756Z,6.00
2023-01-29T01:43:22.722Z,6.70
2023-01-29T01:45:50.193Z,6.70
2023-01-29T01:48:18.988Z,6.70
2023-01-29T01:50:47.375Z,7.30
2023-01-29T01:53:16.562Z,7.60
2023-01-29T01:55:49.959Z,6.90
2023-01-29T01:58:26.841Z,7.10
2023-01-29T02:00:54.448Z,7.20
2023-01-29T02:03:41.272Z,8.40
2023-01-29T02:06:27.323Z,8.50
2023-01-29T02:09:17.013Z,7.80
2023-01-29T02:11:43.658Z,8.30
2023-01-29T02:14:11.854Z,9.60
2023-01-29T02:16:38.777Z,9.20
2023-01-29T02:19:09.705Z,9.70
2023-01-29T02:21:46.219Z,8.10
2023-01-29T02:24:13.275Z,8.30
2023-01-29T02:26:58.635Z,8.30
2023-01-29T02:29:35.524Z,9.00
2023-01-29T02:32:11.344Z,9.80
2023-01-29T02:35:15.845Z,8.30
2023-01-29T02:38:08.734Z,7.20
2023-01-29T02:40:44.249Z,7.20
2023-01-29T02:43:26.084Z,7.30
2023-01-29T02:46:05.782Z,8.30
2023-01-29T02:48:44.896Z,8.00
2023-01-29T02:51:19.562Z,8.70
2023-01-29T02:53:58.904Z,8.30
2023-01-29T02:56:34.204Z,7.70
2023-01-29T02:59:13.114Z,9.20
2023-01-29T03:01:43.407Z,7.60
2023-01-29T03:04:12.336Z,7.80
2023-01-29T03:06:41.361Z,8.20
2023-01-29T03:09:11.300Z,6.70
2023-01-29T03:11:42.427Z,8.00
2023-01-29T03:14:13.459Z,7.80
2023-01-29T03:16:42.159Z,8.20
2023-01-29T03:19:12.564Z,7.20
2023-01-29T03:21:51.465Z,8.60
2023-01-29T03:24:39.222Z,6.10
2023-01-29T03:27:27.308Z,6.60
2023-01-29T03:30:14.787Z,6.70
2023-01-29T03:32:52.641Z,7.10
2023-01-29T03:35:37.008Z,7.30
2023-01-29T03:38:05.551Z,7.40
2023-01-29T03:40:38.562Z,7.20
2023-01-29T03:43:11.533Z,7.30
2023-01-29T03:45:58.433Z,6.70
2023-01-29T03:48:48.993Z,6.70
2023-01-29T03:51:24.978Z,6.00
2023-01-29T03:54:12.173Z,8.00
2023-01-29T03:56:52.386Z,7.20
2023-01-29T03:59:23.480Z,6.50
2023-01-29T04:02:27.594Z,6.30
2023-01-29T04:05:02.252Z,7.10
2023-01-29T04:07:33.613Z,6.40
2023-01-29T04:10:15.126Z,7.10
2023-01-29T04:12:44.910Z,6.00
2023-01-29T04:15:17.217Z,6.10
2023-01-29T04:17:48.184Z,6.80
2023-01-29T04:20:21.570Z,6.30
2023-01-29T04:22:49.707Z,6.20
2023-01-29T04:25:26.667Z,6.70
2023-01-29T04:27:54.557Z,6.60
2023-01-29T04:30:27.377Z,6.10
2023-01-29T04:32:59.362Z,6.20
2023-01-29T04:35:36.356Z,6.30
2023-01-29T04:38:21.357Z,6.50
2023-01-29T04:41:04.197Z,6.10
2023-01-29T04:43:49.431Z,6.10
2023-01-29T04:46:18.677Z,5.90
2023-01-29T04:49:05.570Z,6.20
2023-01-29T04:51:38.771Z,6.80
2023-01-29T04:54:26.027Z,6.60
2023-01-29T04:56:59.242Z,6.80
2023-01-29T04:59:31.129Z,7.50
2023-01-29T05:01:59.847Z,6.40
2023-01-29T05:04:27.600Z,7.40
2023-01-29T05:06:55.485Z,10.10
2023-01-29T05:09:23.451Z,8.70
2023-01-29T05:11:50.588Z,7.50
2023-01-29T05:14:18.265Z,6.80
2023-01-29T05:16:47.413Z,6.80
2023-01-29T05:19:16.261Z,5.50
2023-01-29T05:21:47.643Z,6.10
2023-01-29T05:24:16.106Z,6.20
2023-01-29T05:27:01.870Z,7.60
2023-01-29T05:29:28.606Z,5.90
2023-01-29T05:31:55.478Z,7.60
2023-01-29T05:34:22.275Z,6.80
2023-01-29T05:36:49.109Z,7.40
2023-01-29T05:39:15.783Z,6.40
2023-01-29T05:41:42.595Z,6.40
2023-01-29T05:44:13.124Z,6.10
2023-01-29T05:46:39.811Z,6.70
2023-01-29T05:49:06.493Z,6.30
2023-01-29T05:51:33.251Z,5.80
2023-01-29T05:53:59.899Z,5.70
2023-01-29T05:56:26.658Z,5.70
2023-01-29T05:58:53.837Z,6.10
2023-01-29T06:01:21.844Z,5.60
2023-01-29T06:03:48.525Z,6.20
2023-01-29T06:06:15.600Z,6.50
2023-01-29T06:08:42.845Z,6.50
2023-01-29T06:11:10.931Z,5.30
2023-01-29T06:13:37.883Z,6.10
2023-01-29T06:16:06.173Z,5.60
2023-01-29T06:18:32.998Z,6.10
2023-01-29T06:21:03.246Z,5.90
2023-01-29T06:23:30.663Z,5.70
2023-01-29T06:26:04.985Z,5.30
2023-01-29T06:28:31.931Z,5.40
2023-01-29T06:31:08.247Z,6.50
2023-01-29T06:33:43.359Z,5.40
2023-01-29T06:36:10.103Z,6.10
2023-01-29T06:38:36.729Z,6.30
2023-01-29T06:41:10.363Z,6.30
2023-01-29T06:43:37.545Z,7.50
2023-01-29T06:46:04.732Z,5.70
2023-01-29T06:48:31.400Z,6.00
2023-01-29T06:51:01.913Z,8.10
2023-01-29T06:53:28.498Z,6.50
2023-01-29T06:55:55.172Z,6.30
2023-01-29T06:58:22.108Z,6.30
2023-01-29T07:00:48.795Z,5.20
2023-01-29T07:03:15.603Z,6.50
2023-01-29T07:05:42.251Z,4.70
2023-01-29T07:08:09.965Z,4.50
2023-01-29T07:10:36.712Z,3.90
2023-01-29T07:13:03.292Z,4.40
2023-01-29T07:15:29.909Z,4.40
2023-01-29T07:18:00.948Z,4.10
2023-01-29T07:20:28.744Z,5.90
2023-01-29T07:22:56.831Z,4.00
2023-01-29T07:25:24.100Z,7.20
2023-01-29T07:27:50.794Z,7.70
2023-01-29T07:30:17.933Z,6.80
2023-01-29T07:32:44.960Z,6.40
2023-01-29T07:35:11.597Z,6.10
2023-01-29T07:37:38.206Z,4.50
2023-01-29T07:40:10.548Z,3.30
2023-01-29T07:42:42.382Z,9.60
2023-01-29T07:45:09.233Z,3.50
2023-01-29T07:47:36.063Z,3.40
2023-01-29T07:50:03.179Z,3.30
2023-01-29T07:52:30.807Z,3.20
2023-01-29T07:54:57.450Z,2.10
2023-01-29T07:57:24.106Z,1.90
2023-01-29T07:59:50.802Z,4.80
2023-01-29T08:02:18.004Z,3.10
2023-01-29T08:04:44.681Z,15.60
2023-01-29T08:07:11.284Z,9.90
2023-01-29T08:09:37.998Z,6.10
2023-01-29T08:12:04.747Z,3.50
2023-01-29T08:14:31.392Z,2.60
2023-01-29T08:16:58.080Z,2.20
2023-01-29T08:19:24.741Z,3.20
2023-01-29T08:21:51.445Z,2.60
2023-01-29T08:24:18.180Z,2.70
2023-01-29T08:26:44.918Z,2.10
2023-01-29T08:29:12.021Z,2.40
2023-01-29T08:31:40.566Z,2.20
2023-01-29T08:34:08.091Z,2.50
2023-01-29T08:36:35.315Z,2.00
2023-01-29T08:39:02.130Z,2.00
2023-01-29T08:41:28.813Z,1.70
2023-01-29T08:43:55.520Z,2.00
2023-01-29T08:46:22.503Z,2.20
2023-01-29T08:48:49.211Z,2.00
2023-01-29T08:51:15.853Z,2.30
2023-01-29T08:53:42.618Z,1.60
2023-01-29T08:56:09.230Z,1.80
2023-01-29T08:58:35.890Z,1.90
2023-01-29T09:01:06.222Z,1.50
2023-01-29T09:03:32.807Z,1.50
2023-01-29T09:05:59.426Z,2.00
2023-01-29T09:08:26.115Z,1.60
2023-01-29T09:10:52.755Z,2.00
2023-01-29T09:13:19.431Z,2.00
2023-01-29T09:15:46.113Z,1.70
2023-01-29T09:18:12.740Z,1.80
2023-01-29T09:20:39.462Z,1.60
2023-01-29T09:23:07.373Z,2.30
2023-01-29T09:25:34.092Z,1.90
2023-01-29T09:28:00.744Z,2.10
2023-01-29T09:30:27.402Z,1.90
2023-01-29T09:32:54.807Z,2.20
2023-01-29T09:35:22.349Z,2.10
2023-01-29T09:37:49.601Z,1.40
2023-01-29T09:40:21.310Z,2.00
2023-01-29T09:42:50.832Z,26.80
2023-01-29T09:45:24.695Z,4.10
2023-01-29T09:47:52.112Z,3.20
2023-01-29T09:50:40.109Z,3.00
2023-01-29T09:53:30.044Z,1.80
2023-01-29T09:56:01.352Z,1.90
2023-01-29T09:58:30.993Z,1.40
2023-01-29T10:00:57.546Z,1.40
2023-01-29T10:03:32.399Z,1.60
2023-01-29T10:05:58.988Z,1.60
2023-01-29T10:08:48.768Z,1.70
2023-01-29T10:11:34.249Z,1.50
2023-01-29T10:14:07.212Z,2.50
2023-01-29T10:16:52.915Z,2.10
2023-01-29T10:19:25.518Z,2.60
2023-01-29T10:22:09.654Z,2.60
2023-01-29T10:24:36.267Z,2.40
2023-01-29T10:27:03.969Z,2.40
2023-01-29T10:29:31.639Z,1.70
2023-01-29T10:32:05.167Z,2.10
2023-01-29T10:35:10.492Z,2.30
2023-01-29T10:37:41.420Z,1.50
2023-01-29T10:40:22.036Z,1.50
2023-01-29T10:43:06.326Z,1.60
2023-01-29T10:45:46.602Z,1.80
2023-01-29T10:48:34.197Z,1.40
2023-01-29T10:51:12.273Z,1.60
2023-01-29T10:53:57.183Z,1.50
2023-01-29T10:56:44.279Z,1.80
2023-01-29T10:59:33.569Z,1.60
2023-01-29T11:02:00.767Z,10.70
2023-01-29T11:04:28.398Z,3.70
2023-01-29T11:06:55.038Z,2.80
2023-01-29T11:09:24.850Z,2.50
2023-01-29T11:11:54.602Z,5.70
2023-01-29T11:14:30.486Z,3.60
2023-01-29T11:16:57.298Z,2.10
2023-01-29T11:19:38.108Z,2.20
2023-01-29T11:22:04.895Z,1.50
2023-01-29T11:24:31.549Z,2.20
2023-01-29T11:26:59.300Z,1.50
2023-01-29T11:29:56.960Z,2.10
2023-01-29T11:32:23.601Z,1.40
2023-01-29T11:34:57.931Z,1.70
2023-01-29T11:37:31.719Z,2.50
2023-01-29T11:39:58.510Z,1.90
2023-01-29T11:42:27.596Z,1.90
2023-01-29T11:44:54.438Z,2.10
2023-01-29T11:47:24.748Z,1.60
2023-01-29T11:50:02.253Z,1.80
2023-01-29T11:52:41.156Z,2.80
2023-01-29T11:55:13.613Z,1.90
2023-01-29T11:57:44.146Z,2.10
2023-01-29T12:00:20.745Z,2.30
2023-01-29T12:02:49.496Z,1.50
2023-01-29T12:05:20.633Z,1.80
2023-01-29T12:07:49.751Z,2.40
2023-01-29T12:10:28.905Z,2.20
2023-01-29T12:13:04.725Z,2.80
2023-01-29T12:15:31.490Z,2.80
2023-01-29T12:18:18.693Z,2.40
2023-01-29T12:20:48.840Z,2.00
2023-01-29T12:23:27.776Z,3.30
2023-01-29T12:26:30.176Z,13.10
2023-01-29T12:29:00.434Z,5.00
2023-01-29T12:31:39.352Z,2.80
2023-01-29T12:34:24.471Z,2.30
2023-01-29T12:37:11.387Z,2.30
2023-01-29T12:39:38.340Z,2.10
2023-01-29T12:42:09.739Z,1.80
2023-01-29T12:44:42.961Z,1.70
2023-01-29T12:47:17.198Z,1.80
2023-01-29T12:49:45.363Z,2.20
2023-01-29T12:52:16.249Z,2.90
2023-01-29T12:54:47.469Z,1.50
2023-01-29T12:57:26.322Z,2.00
2023-01-29T12:59:55.828Z,2.10
2023-01-29T13:03:01.582Z,1.80
2023-01-29T13:05:36.958Z,1.80
2023-01-29T13:08:07.547Z,2.30
2023-01-29T13:10:37.776Z,2.10
2023-01-29T13:13:06.643Z,2.20
2023-01-29T13:15:35.771Z,1.70
2023-01-29T13:18:22.630Z,4.20
2023-01-29T13:20:49.868Z,7.10
2023-01-29T13:23:27.261Z,3.80
2023-01-29T13:25:54.656Z,2.70
2023-01-29T13:28:23.571Z,2.10
2023-01-29T13:31:09.238Z,1.60
2023-01-29T13:33:36.512Z,1.30
2023-01-29T13:36:03.387Z,1.60
2023-01-29T13:38:35.474Z,1.40
2023-01-29T13:41:04.549Z,1.30
2023-01-29T13:43:37.140Z,2.10
2023-01-29T13:46:21.868Z,2.00
2023-01-29T13:48:52.965Z,1.20
2023-01-29T13:51:26.176Z,1.50
2023-01-29T13:53:58.858Z,1.70
2023-01-29T13:56:30.291Z,2.80
2023-01-29T13:58:57.931Z,2.60
2023-01-29T14:01:44.965Z,2.50
2023-01-29T14:04:28.503Z,1.90
2023-01-29T14:07:03.568Z,2.10
2023-01-29T14:09:39.215Z,1.90
2023-01-29T14:12:21.109Z,1.50
2023-01-29T14:14:47.778Z,1.60
2023-01-29T14:17:19.434Z,2.20
2023-01-29T14:19:50.786Z,1.70
2023-01-29T14:22:24.855Z,1.80
2023-01-29T14:24:55.652Z,1.50
2023-01-29T14:27:26.229Z,1.80
2023-01-29T14:30:00.440Z,1.20
2023-01-29T14:32:28.333Z,1.40
2023-01-29T14:35:00.270Z,2.00
2023-01-29T14:37:33.694Z,2.60
2023-01-29T14:40:12.835Z,3.30
2023-01-29T14:42:48.133Z,3.20
2023-01-29T14:45:21.928Z,5.60
2023-01-29T14:47:48.803Z,2.40
2023-01-29T14:50:32.100Z,1.90
2023-01-29T14:53:11.256Z,1.40
2023-01-29T14:55:40.792Z,1.50
2023-01-29T14:58:12.317Z,1.30
2023-01-29T15:00:41.178Z,1.50
2023-01-29T15:03:13.694Z,1.60
2023-01-29T15:05:42.483Z,1.70
2023-01-29T15:08:23.990Z,1.90
2023-01-29T15:11:13.397Z,1.90
2023-01-29T15:13:51.761Z,1.70
2023-01-29T15:16:25.976Z,3.30
2023-01-29T15:18:55.294Z,2.80
2023-01-29T15:21:22.307Z,2.00
2023-01-29T15:24:04.711Z,2.60
2023-01-29T15:26:31.459Z,2.00
2023-01-29T15:29:04.128Z,2.20
2023-01-29T15:31:32.424Z,2.00
2023-01-29T15:34:03.283Z,2.70
2023-01-29T15:36:32.026Z,4.50
2023-01-29T15:39:17.712Z,4.50
2023-01-29T15:41:44.833Z,3.20
2023-01-29T15:44:19.148Z,2.60
2023-01-29T15:46:48.969Z,2.40
2023-01-29T15:49:32.513Z,2.30
2023-01-29T15:52:00.987Z,2.30
2023-01-29T15:54:31.496Z,1.60
2023-01-29T15:57:01.185Z,2.50
2023-01-29T15:59:34.748Z,2.00
2023-01-29T16:02:21.843Z,2.40
2023-01-29T16:04:48.989Z,2.50
2023-01-29T16:07:16.699Z,3.40
2023-01-29T16:09:43.712Z,3.70
2023-01-29T16:12:14.278Z,4.70
2023-01-29T16:14:42.493Z,4.30
2023-01-29T16:17:27.498Z,4.30
2023-01-29T16:19:59.085Z,7.50
2023-01-29T16:22:35.666Z,5.20
2023-01-29T16:25:07.560Z,4.50
2023-01-29T16:27:35.483Z,6.70
2023-01-29T16:30:04.639Z,5.90
2023-01-29T16:32:32.089Z,4.30
2023-01-29T16:35:00.009Z,3.60
2023-01-29T16:37:31.811Z,3.60
2023-01-29T16:39:58.782Z,3.90
2023-01-29T16:42:33.726Z,4.70
2023-01-29T16:45:01.575Z,3.00
2023-01-29T16:47:31.094Z,4.20
2023-01-29T16:49:59.996Z,4.70
2023-01-29T16:52:32.277Z,4.30
2023-01-29T16:55:16.592Z,3.00
2023-01-29T16:57:45.716Z,3.60
2023-01-29T17:00:21.837Z,3.00
2023-01-29T17:02:53.887Z,2.90
2023-01-29T17:05:23.260Z,3.80
2023-01-29T17:07:51.061Z,3.80
2023-01-29T17:10:20.280Z,3.90
2023-01-29T17:12:55.837Z,4.60
2023-01-29T17:15:44.377Z,4.40
2023-01-29T17:18:19.832Z,4.20
2023-01-29T17:20:47.926Z,3.60
2023-01-29T17:23:17.434Z,5.40
2023-01-29T17:25:45.863Z,4.80
2023-01-29T17:28:15.401Z,10.20
2023-01-29T17:30:50.631Z,7.70
2023-01-29T17:33:27.106Z,6.90
2023-01-29T17:35:56.309Z,7.80
2023-01-29T17:38:26.626Z,3.50
2023-01-29T17:40:54.645Z,2.80
2023-01-29T17:43:21.903Z,2.00
2023-01-29T17:45:49.714Z,2.30
2023-01-29T17:48:23.538Z,3.40
2023-01-29T17:50:54.052Z,3.70
2023-01-29T17:53:26.534Z,4.80
2023-01-29T17:55:58.590Z,4.40
2023-01-29T17:58:31.743Z,3.50
2023-01-29T18:01:00.002Z,3.30
2023-01-29T18:03:27.916Z,6.30
2023-01-29T18:05:55.789Z,4.20
2023-01-29T18:08:30.001Z,3.20
2023-01-29T18:10:57.895Z,2.80
2023-01-29T18:13:25.739Z,3.10
2023-01-29T18:15:53.863Z,3.90
2023-01-29T18:18:22.895Z,4.80
2023-01-29T18:20:59.979Z,5.10
2023-01-29T18:23:30.802Z,4.80
2023-01-29T18:25:58.763Z,3.10
2023-01-29T18:28:26.208Z,2.10
2023-01-29T18:30:54.218Z,1.80
2023-01-29T18:33:21.430Z,2.30
2023-01-29T18:35:49.152Z,2.10
2023-01-29T18:38:18.529Z,2.60
2023-01-29T18:40:46.768Z,2.90
2023-01-29T18:43:15.200Z,2.20
2023-01-29T18:45:42.952Z,2.70
2023-01-29T18:48:11.224Z,3.00
2023-01-29T18:50:40.550Z,3.10
2023-01-29T18:53:07.918Z,3.60
2023-01-29T18:55:37.221Z,6.20
2023-01-29T18:58:33.638Z,4.40
2023-01-29T19:00:55.431Z,4.20
2023-01-29T19:03:24.028Z,4.10
2023-01-29T19:05:52.613Z,3.40
2023-01-29T19:08:21.532Z,4.30
2023-01-29T19:10:49.414Z,4.80
2023-01-29T19:13:18.969Z,4.40
2023-01-29T19:15:48.961Z,4.70
2023-01-29T19:18:17.161Z,3.20
2023-01-29T19:20:45.249Z,3.00
2023-01-29T19:23:13.212Z,3.10
2023-01-29T19:25:41.191Z,2.90
2023-01-29T19:28:09.199Z,2.90
2023-01-29T19:30:37.340Z,3.20
2023-01-29T19:33:05.178Z,4.10
2023-01-29T19:35:34.859Z,2.70
2023-01-29T19:38:03.617Z,1.80
2023-01-29T19:40:32.435Z,2.20
2023-01-29T19:43:01.707Z,2.30
2023-01-29T19:45:49.165Z,4.10
2023-01-29T19:48:22.502Z,6.60
2023-01-29T19:50:54.361Z,4.70
2023-01-29T19:53:24.443Z,3.90
2023-01-29T19:55:59.653Z,3.60
2023-01-29T19:58:27.613Z,3.80
2023-01-29T20:00:59.772Z,3.50
2023-01-29T20:03:30.579Z,3.40
2023-01-29T20:06:07.449Z,3.80
2023-01-29T20:08:36.749Z,4.10
2023-01-29T20:11:06.876Z,3.70
2023-01-29T20:13:34.737Z,2.70
2023-01-29T20:16:04.862Z,2.60
2023-01-29T20:18:34.565Z,3.30
2023-01-29T20:21:07.080Z,3.50
2023-01-29T20:23:38.151Z,3.60
2023-01-29T20:26:10.110Z,4.10
2023-01-29T20:28:39.279Z,3.60
2023-01-29T20:31:08.666Z,4.40
2023-01-29T20:33:39.692Z,4.10
2023-01-29T20:36:10.128Z,4.70
2023-01-29T20:38:39.355Z,4.90
2023-01-29T20:41:08.116Z,5.00
2023-01-29T20:43:38.148Z,5.40
2023-01-29T20:46:05.826Z,5.80
2023-01-29T20:48:34.064Z,5.00
2023-01-29T20:51:10.628Z,4.30
2023-01-29T20:53:39.313Z,2.70
2023-01-29T20:56:08.718Z,2.50
2023-01-29T20:58:38.931Z,4.20
2023-01-29T21:01:13.597Z,4.80
2023-01-29T21:03:41.428Z,7.30
2023-01-29T21:06:09.767Z,7.40
2023-01-29T21:08:38.275Z,7.50
2023-01-29T21:11:06.498Z,7.20
2023-01-29T21:13:36.171Z,6.00
2023-01-29T21:16:03.771Z,6.40
2023-01-29T21:18:34.150Z,5.70
2023-01-29T21:21:03.657Z,5.50
2023-01-29T21:23:31.333Z,6.40
2023-01-29T21:26:02.855Z,5.10
2023-01-29T21:28:30.454Z,4.90
2023-01-29T21:31:05.155Z,4.30
2023-01-29T21:33:32.212Z,3.80
2023-01-29T21:35:59.783Z,3.90
2023-01-29T21:38:26.603Z,3.60
2023-01-29T21:40:59.325Z,3.90
2023-01-29T21:43:26.183Z,3.70
2023-01-29T21:46:00.598Z,4.30
2023-01-29T21:48:27.632Z,3.80
2023-01-29T21:50:54.470Z,4.90
2023-01-29T21:53:21.143Z,4.70
2023-01-29T21:55:47.891Z,5.30
2023-01-29T21:58:14.972Z,4.30
2023-01-29T22:00:41.811Z,5.60
2023-01-29T22:03:08.651Z,4.90
2023-01-29T22:05:35.469Z,5.20
2023-01-29T22:08:02.745Z,3.10
2023-01-29T22:10:30.747Z,3.30
2023-01-29T22:12:59.316Z,2.30
2023-01-29T22:15:26.060Z,2.60
2023-01-29T22:17:52.776Z,1.40
2023-01-29T22:20:19.702Z,2.30
2023-01-29T22:22:46.667Z,2.20
2023-01-29T22:25:13.521Z,2.50
2023-01-29T22:27:40.358Z,1.90
2023-01-29T22:30:08.075Z,2.80
2023-01-29T22:32:35.144Z,2.50
2023-01-29T22:35:02.108Z,2.50
2023-01-29T22:37:30.343Z,2.20
2023-01-29T22:39:57.011Z,2.60
2023-01-29T22:42:23.641Z,2.20
2023-01-29T22:44:50.344Z,2.00
2023-01-29T22:47:17.030Z,2.90
2023-01-29T22:49:46.464Z,2.90
2023-01-29T22:52:13.893Z,2.50
2023-01-29T22:54:41.904Z,1.90
2023-01-29T22:57:10.742Z,2.40
2023-01-29T22:59:37.567Z,3.00
2023-01-29T23:02:04.800Z,2.60
2023-01-29T23:04:31.540Z,2.50
2023-01-29T23:06:58.239Z,2.70
2023-01-29T23:09:25.001Z,3.10
2023-01-29T23:11:51.630Z,3.20
2023-01-29T23:14:18.286Z,2.50
2023-01-29T23:16:44.885Z,2.40
2023-01-29T23:19:12.367Z,2.00
2023-01-29T23:21:39.855Z,2.30
2023-01-29T23:24:07.259Z,1.80
2023-01-29T23:26:53.102Z,1.60
2023-01-29T23:29:19.804Z,2.00
2023-01-29T23:31:46.535Z,1.90
2023-01-29T23:34:13.915Z,2.30
2023-01-29T23:36:41.099Z,1.70
2023-01-29T23:39:07.817Z,1.70
2023-01-29T23:41:34.661Z,1.40
2023-01-29T23:44:02.443Z,1.80
2023-01-29T23:46:29.155Z,2.00
2023-01-29T23:48:55.789Z,1.70
2023-01-29T23:51:22.472Z,2.30
2023-01-29T23:53:49.104Z,2.10
2023-01-29T23:56:15.774Z,2.20
2023-01-29T23:58:43.240Z,1.50
